createdAt,value
2023-09-28T00:00:47.552Z,66.92
2023-09-28T00:05:48.964Z,66.85
2023-09-28T00:10:50.497Z,66.81
2023-09-28T00:15:51.903Z,67.51
2023-09-28T00:20:53.325Z,67.65
2023-09-28T00:25:54.870Z,67.79
2023-09-28T00:30:56.369Z,67.54
2023-09-28T00:35:57.967Z,68.05
2023-09-28T00:40:59.449Z,67.83
2023-09-28T00:46:01.605Z,67.73
2023-09-28T00:51:05.077Z,67.69
2023-09-28T00:56:08.839Z,67.65
2023-09-28T01:01:11.664Z,67.78
2023-09-28T01:06:13.881Z,67.82
2023-09-28T01:11:15.270Z,67.74
2023-09-28T01:16:16.688Z,67.85
2023-09-28T01:21:20.003Z,67.63
2023-09-28T01:26:21.426Z,68.11
2023-09-28T01:31:22.942Z,68.82
2023-09-28T01:36:24.339Z,68.36
2023-09-28T01:41:25.770Z,68.43
2023-09-28T01:46:27.169Z,68.31
2023-09-28T01:51:28.702Z,68.29
2023-09-28T01:56:30.135Z,68.27
2023-09-28T02:01:32.983Z,67.88
2023-09-28T02:06:34.518Z,68.01
2023-09-28T02:11:35.937Z,68.08
2023-09-28T02:16:37.328Z,68.17
2023-09-28T02:21:38.792Z,68.50
2023-09-28T02:26:40.263Z,67.97
2023-09-28T02:31:42.622Z,68.17
2023-09-28T02:36:44.231Z,68.21
2023-09-28T02:41:45.647Z,68.04
2023-09-28T02:46:47.050Z,68.06
2023-09-28T02:51:49.250Z,68.03
2023-09-28T02:56:51.226Z,69.21
2023-09-28T03:01:53.232Z,69.28
2023-09-28T03:06:54.908Z,69.06
2023-09-28T03:11:56.469Z,68.98
2023-09-28T03:16:57.993Z,69.04
2023-09-28T03:21:59.915Z,68.61
2023-09-28T03:27:10.002Z,68.93
2023-09-28T03:32:12.465Z,68.67
2023-09-28T03:37:19.747Z,68.95
2023-09-28T03:42:21.129Z,68.91
2023-09-28T03:47:22.513Z,68.93
2023-09-28T03:52:23.893Z,68.86
2023-09-28T03:57:25.267Z,69.47
2023-09-28T04:02:28.272Z,69.47
2023-09-28T04:07:30.188Z,69.44
2023-09-28T04:12:31.622Z,69.91
2023-09-28T04:17:35.584Z,69.92
2023-09-28T04:22:37.332Z,69.95
2023-09-28T04:27:39.593Z,70.13
2023-09-28T04:32:41.139Z,69.99
2023-09-28T04:37:42.789Z,70.03
2023-09-28T04:42:44.249Z,69.85
2023-09-28T04:47:45.698Z,69.79
2023-09-28T04:52:47.244Z,70.22
2023-09-28T04:57:48.674Z,70.29
2023-09-28T05:02:50.651Z,70.09
2023-09-28T05:07:53.146Z,70.14
2023-09-28T05:12:55.071Z,70.11
2023-09-28T05:17:56.765Z,70.03
2023-09-28T05:22:58.345Z,70.50
2023-09-28T05:27:59.948Z,70.88
2023-09-28T05:33:01.377Z,70.58
2023-09-28T05:38:03.450Z,70.24
2023-09-28T05:43:04.833Z,70.24
2023-09-28T05:48:06.619Z,70.38
2023-09-28T05:53:08.114Z,70.08
2023-09-28T05:58:09.607Z,69.82
2023-09-28T06:03:11.032Z,69.97
2023-09-28T06:08:13.002Z,70.37
2023-09-28T06:13:14.375Z,70.32
2023-09-28T06:18:15.721Z,70.17
2023-09-28T06:23:18.152Z,70.34
2023-09-28T06:28:20.066Z,70.44
2023-09-28T06:33:27.573Z,70.74
2023-09-28T06:38:28.974Z,70.50
2023-09-28T06:43:30.880Z,70.22
2023-09-28T06:48:34.381Z,70.35
2023-09-28T06:53:36.322Z,70.13
2023-09-28T06:58:37.730Z,70.18
2023-09-28T07:03:39.179Z,70.08
2023-09-28T07:08:40.582Z,69.84
2023-09-28T07:13:42.158Z,70.18
2023-09-28T07:18:43.727Z,70.27
2023-09-28T07:23:45.210Z,70.06
2023-09-28T07:28:46.882Z,70.00
2023-09-28T07:33:49.517Z,70.03
2023-09-28T07:38:51.365Z,70.10
2023-09-28T07:43:53.036Z,69.66
2023-09-28T07:48:57.311Z,69.13
2023-09-28T07:53:58.675Z,68.86
2023-09-28T07:59:00.908Z,68.31
2023-09-28T08:04:02.441Z,68.07
2023-09-28T08:09:04.118Z,67.79
2023-09-28T08:14:06.449Z,67.11
2023-09-28T08:19:07.889Z,66.72
2023-09-28T08:24:11.312Z,66.41
2023-09-28T08:29:13.641Z,65.89
2023-09-28T08:34:19.304Z,65.80
2023-09-28T08:39:26.668Z,65.37
2023-09-28T08:44:31.123Z,64.95
2023-09-28T08:49:35.543Z,64.19
2023-09-28T08:54:37.687Z,63.78
2023-09-28T08:59:40.539Z,63.31
2023-09-28T09:04:43.553Z,62.98
2023-09-28T09:09:47.482Z,62.15
2023-09-28T09:14:49.101Z,61.53
2023-09-28T09:19:51.065Z,61.50
2023-09-28T09:24:56.476Z,61.21
2023-09-28T09:30:01.517Z,60.51
2023-09-28T09:35:04.758Z,59.74
2023-09-28T09:40:13.667Z,59.07
2023-09-28T09:45:15.143Z,58.42
2023-09-28T09:50:18.846Z,58.06
2023-09-28T09:55:21.354Z,57.71
2023-09-28T10:00:24.304Z,57.37
2023-09-28T10:05:28.536Z,56.61
2023-09-28T10:10:31.493Z,56.25
2023-09-28T10:15:34.595Z,55.72
2023-09-28T10:20:37.153Z,55.31
2023-09-28T10:25:54.476Z,54.67
2023-09-28T10:31:08.923Z,53.61
2023-09-28T10:36:14.032Z,52.95
2023-09-28T10:41:18.113Z,52.68
2023-09-28T10:46:19.770Z,52.28
2023-09-28T10:51:21.162Z,51.56
2023-09-28T10:56:22.625Z,51.10
2023-09-28T11:01:24.031Z,50.41
2023-09-28T11:06:25.661Z,50.06
2023-09-28T11:11:27.586Z,49.23
2023-09-28T11:16:29.169Z,48.44
2023-09-28T11:21:31.929Z,46.99
2023-09-28T11:26:34.823Z,45.69
2023-09-28T11:31:38.844Z,45.49
2023-09-28T11:36:41.712Z,45.13
2023-09-28T11:42:00.362Z,44.47
2023-09-28T11:47:03.067Z,44.27
2023-09-28T11:52:05.190Z,44.25
2023-09-28T11:57:08.994Z,43.44
2023-09-28T12:02:10.632Z,41.49
2023-09-28T12:07:12.562Z,41.74
2023-09-28T12:12:13.967Z,41.58
2023-09-28T12:17:16.005Z,41.56
2023-09-28T12:22:17.987Z,40.96
2023-09-28T12:27:20.516Z,40.73
2023-09-28T12:32:21.978Z,40.37
2023-09-28T12:37:23.441Z,40.47
2023-09-28T12:42:25.741Z,41.20
2023-09-28T12:47:27.311Z,39.98
2023-09-28T12:52:29.776Z,39.72
2023-09-28T12:57:31.275Z,39.17
2023-09-28T13:02:32.779Z,39.34
2023-09-28T13:07:35.292Z,38.65
2023-09-28T13:12:36.868Z,38.03
2023-09-28T13:17:39.496Z,37.44
2023-09-28T13:22:41.036Z,37.72
2023-09-28T13:27:42.452Z,37.02
2023-09-28T13:32:43.879Z,36.87
2023-09-28T13:37:46.029Z,37.59
2023-09-28T13:42:47.521Z,37.10
2023-09-28T13:47:49.038Z,36.61
2023-09-28T13:52:50.951Z,36.51
2023-09-28T13:57:52.475Z,35.77
2023-09-28T14:02:55.642Z,35.31
2023-09-28T14:07:57.662Z,34.54
2023-09-28T14:12:59.413Z,33.58
2023-09-28T14:18:00.854Z,34.14
2023-09-28T14:23:02.329Z,33.98
2023-09-28T14:28:04.132Z,33.74
2023-09-28T14:33:05.731Z,34.69
2023-09-28T14:38:07.518Z,34.96
2023-09-28T14:43:09.048Z,35.01
2023-09-28T14:48:10.574Z,35.25
2023-09-28T14:53:13.789Z,36.22
2023-09-28T14:58:15.197Z,36.02
2023-09-28T15:03:16.795Z,36.24
2023-09-28T15:08:18.714Z,36.22
2023-09-28T15:13:20.250Z,36.39
2023-09-28T15:18:21.859Z,35.91
2023-09-28T15:23:23.345Z,36.45
2023-09-28T15:28:24.774Z,36.32
2023-09-28T15:33:26.633Z,36.89
2023-09-28T15:38:28.430Z,36.94
2023-09-28T15:43:33.577Z,37.03
2023-09-28T15:48:34.966Z,37.04
2023-09-28T15:53:36.451Z,37.67
2023-09-28T15:58:37.958Z,38.35
2023-09-28T16:03:39.922Z,38.86
2023-09-28T16:08:42.090Z,39.73
2023-09-28T16:13:43.714Z,39.74
2023-09-28T16:18:45.335Z,39.93
2023-09-28T16:23:46.825Z,40.06
2023-09-28T16:28:48.261Z,41.19
2023-09-28T16:33:49.743Z,42.19
2023-09-28T16:38:51.364Z,42.61
2023-09-28T16:43:53.694Z,43.15
2023-09-28T16:48:55.319Z,44.16
2023-09-28T16:53:56.991Z,44.95
2023-09-28T16:58:58.621Z,45.62
2023-09-28T17:04:00.177Z,45.68
2023-09-28T17:09:01.608Z,47.17
2023-09-28T17:14:03.126Z,47.37
2023-09-28T17:19:05.528Z,47.69
2023-09-28T17:24:07.432Z,48.42
2023-09-28T17:29:09.049Z,49.47
2023-09-28T17:34:11.502Z,50.83
2023-09-28T17:39:12.938Z,51.22
2023-09-28T17:44:14.409Z,52.12
2023-09-28T17:49:16.219Z,52.44
2023-09-28T17:54:17.636Z,52.79
2023-09-28T17:59:19.224Z,53.13
2023-09-28T18:04:20.720Z,53.71
2023-09-28T18:09:22.205Z,54.27
2023-09-28T18:14:23.835Z,54.72
2023-09-28T18:19:25.318Z,55.05
2023-09-28T18:24:26.721Z,55.26
2023-09-28T18:29:28.182Z,55.63
2023-09-28T18:34:32.269Z,55.97
2023-09-28T18:39:34.689Z,56.19
2023-09-28T18:44:37.332Z,56.65
2023-09-28T18:49:38.869Z,57.02
2023-09-28T18:54:42.841Z,57.43
2023-09-28T18:59:45.208Z,57.93
2023-09-28T19:04:46.865Z,58.61
2023-09-28T19:09:49.384Z,58.93
2023-09-28T19:14:50.843Z,59.07
2023-09-28T19:19:54.069Z,59.60
2023-09-28T19:24:55.539Z,59.91
2023-09-28T19:29:57.358Z,60.29
2023-09-28T19:34:58.822Z,60.76
2023-09-28T19:40:00.220Z,61.16
2023-09-28T19:45:01.686Z,60.87
2023-09-28T19:50:03.336Z,61.49
2023-09-28T19:55:05.097Z,61.39
2023-09-28T20:00:08.722Z,62.44
2023-09-28T20:05:12.014Z,62.59
2023-09-28T20:10:13.753Z,62.85
2023-09-28T20:15:15.277Z,62.87
2023-09-28T20:20:16.815Z,62.92
2023-09-28T20:25:18.431Z,63.03
2023-09-28T20:30:19.852Z,62.75
2023-09-28T20:35:21.400Z,63.52
2023-09-28T20:40:22.818Z,63.40
2023-09-28T20:45:24.212Z,63.26
2023-09-28T20:50:25.757Z,63.51
2023-09-28T20:55:27.183Z,63.77
2023-09-28T21:00:28.596Z,64.12
2023-09-28T21:05:31.390Z,64.22
2023-09-28T21:10:32.808Z,64.10
2023-09-28T21:15:34.224Z,63.98
2023-09-28T21:20:35.738Z,63.73
2023-09-28T21:25:37.334Z,63.91
2023-09-28T21:30:38.726Z,64.18
2023-09-28T21:35:40.704Z,64.01
2023-09-28T21:40:42.233Z,64.51
2023-09-28T21:45:43.785Z,64.33
2023-09-28T21:50:45.211Z,64.21
2023-09-28T21:55:46.691Z,64.54
2023-09-28T22:00:48.134Z,64.62
2023-09-28T22:05:53.586Z,64.74
2023-09-28T22:10:55.131Z,64.72
2023-09-28T22:15:56.634Z,64.67
2023-09-28T22:20:58.220Z,64.98
2023-09-28T22:25:59.687Z,65.02
2023-09-28T22:31:01.350Z,65.02
2023-09-28T22:36:02.893Z,65.17
2023-09-28T22:41:04.797Z,65.23
2023-09-28T22:46:06.594Z,65.01
2023-09-28T22:51:08.016Z,65.18
2023-09-28T22:56:09.397Z,65.21
2023-09-28T23:01:10.794Z,65.63
2023-09-28T23:06:13.084Z,65.53
2023-09-28T23:11:17.411Z,65.52
2023-09-28T23:16:19.024Z,65.75
2023-09-28T23:21:20.482Z,65.66
2023-09-28T23:26:24.385Z,66.54
2023-09-28T23:31:27.610Z,66.56
2023-09-28T23:36:29.017Z,66.78
2023-09-28T23:41:30.412Z,66.67
2023-09-28T23:46:31.797Z,66.55
2023-09-28T23:51:35.038Z,66.57
2023-09-28T23:56:40.943Z,66.79
